Time;durP1;ratioP1;P1;durP2;ratioP2;P2;SDS_P1;SDS_P2;PMS_P1;PMS_P2;Temp;Humidity;BMP_temperature;BMP_pressure;BME280_temperature;BME280_humidity;BME280_pressure;Samples;Min_cycle;Max_cycle;Signal;HPM_P1;HPM_P2
2023/11/08 00:00:39;;;;;;;1.83;0.60;;;;;;;16.42;47.09;100946.81;5036564;28;20083;-57
2023/11/08 00:03:05;;;;;;;3.28;0.50;;;;;;;16.45;47.66;100952.75;5034950;28;20068;-58
2023/11/08 00:05:31;;;;;;;1.55;0.50;;;;;;;16.49;47.01;100954.16;5018845;28;20034;-57
2023/11/08 00:07:56;;;;;;;4.43;0.60;;;;;;;16.48;47.45;100952.44;5035384;28;20124;-57
2023/11/08 00:10:21;;;;;;;1.55;0.57;;;;;;;16.47;48.13;100949.91;5035296;28;20103;-57
2023/11/08 00:12:47;;;;;;;4.05;0.68;;;;;;;16.45;46.97;100952.75;5035027;28;20033;-58
2023/11/08 00:15:12;;;;;;;4.93;0.50;;;;;;;16.46;47.12;100964.44;5034766;28;20026;-57
2023/11/08 00:17:38;;;;;;;5.22;0.60;;;;;;;16.46;47.43;100959.88;5034620;28;20037;-57
2023/11/08 00:20:08;;;;;;;4.05;0.30;;;;;;;16.45;47.04;100952.75;5034858;28;20068;-57
2023/11/08 00:22:33;;;;;;;1.17;0.40;;;;;;;16.46;47.79;100962.59;5036045;28;20083;-57
2023/11/08 00:24:59;;;;;;;2.17;0.55;;;;;;;16.46;48.08;100956.31;5034857;28;20041;-57
2023/11/08 00:27:25;;;;;;;1.30;0.38;;;;;;;16.45;46.99;100960.88;5035855;28;20072;-57
2023/11/08 00:29:51;;;;;;;2.58;0.60;;;;;;;16.49;47.77;100964.09;5034586;28;20029;-57
2023/11/08 00:32:21;;;;;;;4.57;1.05;;;;;;;16.48;47.81;100965.97;5034545;28;20417;-57
2023/11/08 00:34:46;;;;;;;1.38;0.55;;;;;;;16.48;47.59;100968.66;5034568;28;20116;-57
2023/11/08 00:37:12;;;;;;;2.63;0.88;;;;;;;16.47;47.70;100961.56;5016952;28;20473;-57
2023/11/08 00:39:37;;;;;;;2.17;0.82;;;;;;;16.48;47.60;100957.00;5035537;28;20038;-57
2023/11/08 00:42:03;;;;;;;0.63;0.32;;;;;;;16.50;48.15;100963.94;5034535;28;20569;-56
2023/11/08 00:44:28;;;;;;;4.00;0.88;;;;;;;16.51;48.37;100968.34;5034305;28;20037;-57
2023/11/08 00:46:54;;;;;;;0.50;0.50;;;;;;;16.50;47.83;100960.41;5034269;28;20390;-57
2023/11/08 00:49:19;;;;;;;3.53;0.70;;;;;;;16.51;46.97;100971.03;5035476;28;20440;-57
2023/11/08 00:51:45;;;;;;;0.88;0.30;;;;;;;16.52;47.89;100967.34;5035404;28;20087;-57
2023/11/08 00:54:11;;;;;;;3.75;0.93;;;;;;;16.53;47.57;100966.34;5034130;28;20083;-57
2023/11/08 00:56:37;;;;;;;1.33;0.75;;;;;;;16.52;46.58;100964.63;5035400;28;20503;-57
2023/11/08 00:59:03;;;;;;;3.13;0.60;;;;;;;16.57;47.69;100978.53;5034155;28;20029;-57
2023/11/08 01:01:30;;;;;;;2.72;0.40;;;;;;;16.54;47.84;100978.84;5035320;28;20030;-57
2023/11/08 01:03:56;;;;;;;1.85;0.50;;;;;;;16.56;47.32;100975.97;5034223;28;20042;-57
2023/11/08 01:06:25;;;;;;;2.55;0.47;;;;;;;16.55;47.11;100977.00;5035273;28;20049;-57
2023/11/08 01:08:50;;;;;;;1.23;0.50;;;;;;;16.55;47.69;100980.56;5034164;28;20523;-57
2023/11/08 01:11:17;;;;;;;1.58;0.60;;;;;;;16.60;47.80;100983.63;5033064;28;20037;-56
2023/11/08 01:13:42;;;;;;;4.60;0.70;;;;;;;16.59;47.09;100984.63;5033767;28;20030;-58
2023/11/08 01:16:08;;;;;;;0.30;0.30;;;;;;;16.60;48.11;100994.44;5033732;28;20382;-57
2023/11/08 01:18:34;;;;;;;0.40;0.25;;;;;;;16.57;47.93;100993.91;5033629;28;20052;-57
2023/11/08 01:21:00;;;;;;;4.07;0.63;;;;;;;16.58;47.17;100991.03;5033737;28;20215;-58
2023/11/08 01:23:27;;;;;;;0.63;0.35;;;;;;;16.55;46.78;100996.78;5033623;28;20521;-57
2023/11/08 01:25:52;;;;;;;1.10;0.20;;;;;;;16.54;47.72;100994.25;5034228;28;20547;-57
2023/11/08 01:28:18;;;;;;;1.35;0.35;;;;;;;16.52;47.93;100997.09;5035007;28;20037;-57
2023/11/08 01:30:44;;;;;;;4.60;0.45;;;;;;;16.51;46.87;100994.53;5033917;28;20117;-57
2023/11/08 01:33:09;;;;;;;2.42;0.47;;;;;;;16.50;47.17;100990.97;5034727;28;20175;-57
2023/11/08 01:35:37;;;;;;;1.00;0.40;;;;;;;16.52;47.45;100999.78;5033258;28;20029;-57
2023/11/08 01:38:02;;;;;;;1.85;0.75;;;;;;;16.48;47.04;101006.53;5034674;28;20108;-57
2023/11/08 01:40:28;;;;;;;2.05;0.38;;;;;;;16.50;47.42;101014.50;5033064;28;20117;-57
2023/11/08 01:42:53;;;;;;;2.10;0.45;;;;;;;16.48;47.67;101005.66;5034541;28;20079;-57
2023/11/08 01:45:19;;;;;;;2.50;0.70;;;;;;;16.49;47.42;101013.63;5032763;28;20036;-57
2023/11/08 01:47:44;;;;;;;2.72;0.30;;;;;;;16.48;46.76;101016.47;5034327;28;20040;-57
2023/11/08 01:50:10;;;;;;;2.53;0.30;;;;;;;16.48;48.15;101011.94;5024376;28;20538;-57
2023/11/08 01:52:36;;;;;;;2.00;0.38;;;;;;;16.48;46.43;101006.53;5015059;28;20038;-57
2023/11/08 01:55:02;;;;;;;0.60;0.25;;;;;;;16.46;47.01;101008.56;5014595;28;20037;-57
2023/11/08 01:57:29;;;;;;;0.70;0.70;;;;;;;16.47;46.51;101021.03;5013039;28;20073;-57
2023/11/08 01:59:57;;;;;;;2.60;0.40;;;;;;;16.45;47.05;101012.25;5013226;28;20472;-57
2023/11/08 02:02:24;;;;;;;1.38;0.32;;;;;;;16.47;47.60;101012.94;5013190;28;20490;-57
2023/11/08 02:04:52;;;;;;;3.00;0.55;;;;;;;16.48;47.02;101021.91;5014229;28;20125;-57
2023/11/08 02:07:17;;;;;;;1.30;0.25;;;;;;;16.44;47.34;101016.00;4980483;28;20038;-57
2023/11/08 02:09:42;;;;;;;1.42;0.85;;;;;;;16.44;47.57;101020.53;5014085;28;20065;-57
2023/11/08 02:12:08;;;;;;;0.55;0.30;;;;;;;16.44;47.67;101026.81;5012836;28;20088;-57
2023/11/08 02:14:33;;;;;;;1.27;0.30;;;;;;;16.44;47.12;101016.00;5013056;28;20117;-56
2023/11/08 02:17:00;;;;;;;1.95;0.63;;;;;;;16.46;47.03;101034.75;5014234;28;20030;-57
2023/11/08 02:19:26;;;;;;;2.85;0.47;;;;;;;16.41;47.10;101027.13;5014282;28;20068;-57
2023/11/08 02:21:52;;;;;;;2.95;0.40;;;;;;;16.41;47.78;101027.13;5013049;28;20018;-57
2023/11/08 02:24:18;;;;;;;1.25;0.50;;;;;;;16.39;47.28;101029.13;5013492;28;20075;-57
2023/11/08 02:26:50;;;;;;;3.60;0.35;;;;;;;16.37;47.22;101033.84;5016250;28;20056;-61
2023/11/08 02:29:17;;;;;;;0.90;0.57;;;;;;;16.36;47.43;101040.25;5017653;28;20021;-60
2023/11/08 02:31:43;;;;;;;1.83;0.43;;;;;;;16.36;47.47;101031.31;5015008;28;20056;-57
2023/11/08 02:34:09;;;;;;;0.80;0.30;;;;;;;16.31;46.50;101021.81;5011690;28;20032;-57
2023/11/08 02:36:35;;;;;;;5.88;0.57;;;;;;;16.34;47.15;101026.06;5012907;28;20033;-57
2023/11/08 02:39:00;;;;;;;0.65;0.25;;;;;;;16.31;47.00;101023.69;5023549;28;20392;-57
2023/11/08 02:41:26;;;;;;;2.85;0.65;;;;;;;16.27;46.85;101023.13;5032125;28;20029;-57
2023/11/08 02:43:51;;;;;;;1.13;0.93;;;;;;;16.28;46.94;101029.41;5032096;28;20026;-57
2023/11/08 02:46:16;;;;;;;2.05;0.40;;;;;;;16.23;46.81;101029.91;5033435;28;20036;-57
2023/11/08 02:48:42;;;;;;;5.25;1.20;;;;;;;16.24;47.23;101030.75;5015725;28;20021;-57
2023/11/08 02:51:08;;;;;;;1.13;0.50;;;;;;;16.22;47.50;101038.16;5033505;28;20026;-56
2023/11/08 02:53:33;;;;;;;0.85;0.45;;;;;;;16.22;47.68;101033.59;5033282;28;21977;-57
2023/11/08 02:55:59;;;;;;;2.42;0.40;;;;;;;16.21;46.46;101025.66;5031983;28;20069;-57
2023/11/08 02:58:24;;;;;;;1.73;0.57;;;;;;;16.20;46.74;101023.94;5015562;28;20042;-57
2023/11/08 03:00:54;;;;;;;0.65;0.38;;;;;;;16.20;47.28;101027.50;5033345;28;20034;-56
2023/11/08 03:03:19;;;;;;;6.13;0.82;;;;;;;16.21;47.49;101031.06;5032212;28;20044;-57
2023/11/08 03:05:45;;;;;;;0.75;0.50;;;;;;;16.17;47.68;101035.09;5032145;28;20029;-57
2023/11/08 03:08:10;;;;;;;1.48;0.47;;;;;;;16.23;46.78;101039.84;5033196;28;20430;-57
2023/11/08 03:10:35;;;;;;;3.30;0.55;;;;;;;16.22;46.39;101035.44;5031668;28;20109;-57
2023/11/08 03:13:01;;;;;;;2.15;1.13;;;;;;;16.20;47.34;101032.06;5031852;28;20042;-57
2023/11/08 03:15:26;;;;;;;1.60;0.63;;;;;;;16.18;47.53;101025.97;5032831;28;20029;-57
2023/11/08 03:17:52;;;;;;;3.60;0.65;;;;;;;16.14;46.83;101030.84;5031958;28;20061;-56
2023/11/08 03:20:19;;;;;;;1.77;0.60;;;;;;;16.14;46.80;101035.41;5032819;28;20025;-57
2023/11/08 03:22:44;;;;;;;5.68;0.85;;;;;;;16.13;47.95;101025.63;5015370;28;20036;-57
2023/11/08 03:25:13;;;;;;;2.05;0.40;;;;;;;16.09;46.97;101024.22;5031656;28;20052;-57
2023/11/08 03:27:41;;;;;;;2.10;0.30;;;;;;;16.09;47.63;101032.34;5033191;28;20033;-57
2023/11/08 03:30:12;;;;;;;0.60;0.50;;;;;;;16.08;48.17;101030.66;5032182;28;20045;-57
2023/11/08 03:32:38;;;;;;;2.03;0.70;;;;;;;16.04;47.55;101030.13;5033485;28;20045;-56
2023/11/08 03:35:04;;;;;;;2.40;1.02;;;;;;;16.03;46.91;101027.56;5035931;28;20447;-57
2023/11/08 03:37:29;;;;;;;5.32;0.70;;;;;;;15.98;46.41;101040.72;5035689;28;20037;-57
2023/11/08 03:39:55;;;;;;;1.27;0.55;;;;;;;15.89;47.53;101028.16;5035406;28;20576;-57
2023/11/08 03:42:25;;;;;;;0.63;0.40;;;;;;;15.96;47.13;101037.31;5036772;28;20116;-56
2023/11/08 03:44:51;;;;;;;1.13;0.68;;;;;;;15.94;47.74;101044.75;5036870;28;20040;-57
2023/11/08 03:47:16;;;;;;;2.50;0.80;;;;;;;15.92;46.89;101041.34;5036943;28;20037;-57
2023/11/08 03:49:42;;;;;;;1.15;0.50;;;;;;;15.91;48.14;101045.06;5036692;28;20053;-57
2023/11/08 03:52:07;;;;;;;1.27;0.73;;;;;;;15.88;47.66;101046.22;5036491;28;20041;-57
2023/11/08 03:54:33;;;;;;;0.88;0.50;;;;;;;15.90;48.25;101052.31;5036450;28;20030;-56
2023/11/08 03:57:00;;;;;;;1.85;0.50;;;;;;;15.90;46.56;101048.75;5036505;28;20044;-56
2023/11/08 03:59:25;;;;;;;0.88;0.43;;;;;;;15.89;48.01;101041.66;5035408;28;20405;-57
2023/11/08 04:01:51;;;;;;;3.20;0.82;;;;;;;15.88;47.73;101039.97;5035179;28;20034;-57
2023/11/08 04:04:16;;;;;;;3.40;0.63;;;;;;;15.84;47.35;101042.13;5036349;28;20045;-57
2023/11/08 04:06:42;;;;;;;9.18;1.02;;;;;;;15.85;47.95;101045.69;5036254;28;20029;-57
2023/11/08 04:09:07;;;;;;;0.88;0.40;;;;;;;15.82;47.98;101048.72;5018686;28;20036;-56
2023/11/08 04:11:33;;;;;;;3.90;0.88;;;;;;;15.81;46.59;101049.69;5035129;28;20068;-57
2023/11/08 04:13:59;;;;;;;3.58;0.55;;;;;;;15.82;47.38;101062.22;5036210;28;20042;-57
2023/11/08 04:16:25;;;;;;;7.38;0.50;;;;;;;15.81;47.42;101049.69;5035421;28;20408;-58
2023/11/08 04:18:51;;;;;;;1.20;0.43;;;;;;;15.83;48.07;101053.13;5036287;28;20113;-57
2023/11/08 04:21:17;;;;;;;5.85;0.65;;;;;;;15.77;46.94;101054.59;5036370;28;20084;-57
2023/11/08 04:23:42;;;;;;;0.90;0.80;;;;;;;15.80;47.38;101053.44;5035198;28;20029;-57
2023/11/08 04:26:08;;;;;;;3.53;0.43;;;;;;;15.78;47.21;101060.81;5018476;28;20034;-57
2023/11/08 04:28:37;;;;;;;2.00;0.75;;;;;;;15.74;47.76;101055.72;5034892;28;20029;-57
2023/11/08 04:31:03;;;;;;;5.68;0.77;;;;;;;15.73;47.02;101050.50;5034726;28;20505;-57
2023/11/08 04:33:28;;;;;;;3.70;0.50;;;;;;;15.73;47.36;101047.78;5035833;28;20087;-57
2023/11/08 04:35:54;;;;;;;5.22;0.90;;;;;;;15.70;47.53;101043.56;5034592;28;20066;-57
2023/11/08 04:38:19;;;;;;;2.33;0.60;;;;;;;15.74;47.30;101052.19;5035960;28;20071;-56
2023/11/08 04:40:45;;;;;;;4.35;0.52;;;;;;;15.72;47.46;101041.53;5035973;28;20028;-57
2023/11/08 04:43:10;;;;;;;2.78;0.47;;;;;;;15.73;47.30;101051.34;5035771;28;20390;-57
2023/11/08 04:45:36;;;;;;;0.68;0.40;;;;;;;15.73;47.91;101048.66;5032921;28;20041;-56
2023/11/08 04:48:02;;;;;;;7.35;1.25;;;;;;;15.72;47.01;101041.53;5034515;28;20053;-57
2023/11/08 04:50:28;;;;;;;2.38;0.82;;;;;;;15.70;47.54;101048.09;5034098;28;20084;-57
2023/11/08 04:52:53;;;;;;;2.28;0.60;;;;;;;15.70;48.41;101048.97;5035424;28;20037;-57
2023/11/08 04:55:20;;;;;;;1.80;0.57;;;;;;;15.69;48.30;101049.94;5035111;28;20096;-57
2023/11/08 04:57:45;;;;;;;2.20;0.73;;;;;;;15.70;48.20;101054.38;5035579;28;20167;-57
2023/11/08 05:00:11;;;;;;;5.07;0.60;;;;;;;15.68;47.88;101053.69;5017759;28;20053;-57
2023/11/08 05:02:36;;;;;;;2.38;1.00;;;;;;;15.68;48.41;101055.53;5035329;28;20053;-56
2023/11/08 05:05:02;;;;;;;4.55;1.10;;;;;;;15.69;48.69;101058.06;5034011;28;20092;-57
2023/11/08 05:07:27;;;;;;;2.75;0.75;;;;;;;15.67;48.30;101057.38;5035457;28;20128;-57
2023/11/08 05:09:53;;;;;;;2.15;1.00;;;;;;;15.68;47.33;101056.38;5033761;28;20033;-57
2023/11/08 05:12:19;;;;;;;2.92;0.80;;;;;;;15.68;47.25;101052.81;5034817;28;20037;-57
2023/11/08 05:14:45;;;;;;;3.30;0.95;;;;;;;15.65;47.68;101051.28;5034177;28;20033;-57
2023/11/08 05:17:11;;;;;;;1.27;0.75;;;;;;;15.65;48.54;101045.03;5033808;28;20059;-56
2023/11/08 05:19:36;;;;;;;4.18;0.77;;;;;;;15.66;47.42;101052.13;5034985;28;20088;-56
2023/11/08 05:22:02;;;;;;;2.20;0.73;;;;;;;15.65;48.67;101051.28;5033811;28;20434;-56
2023/11/08 05:24:27;;;;;;;1.80;0.73;;;;;;;15.64;47.81;101044.19;5033505;28;20052;-56
2023/11/08 05:26:53;;;;;;;6.53;1.35;;;;;;;15.66;47.81;101039.47;5033647;28;20040;-57
2023/11/08 05:29:18;;;;;;;4.80;1.13;;;;;;;15.63;48.24;101042.47;5034909;28;20044;-57
2023/11/08 05:31:44;;;;;;;3.85;0.95;;;;;;;15.62;47.87;101029.13;5033491;28;20433;-57
2023/11/08 05:34:10;;;;;;;6.13;1.25;;;;;;;15.61;48.38;101033.69;5033476;28;20512;-57
2023/11/08 05:36:36;;;;;;;3.30;1.15;;;;;;;15.60;48.51;101037.41;5033855;28;20041;-57
2023/11/08 05:39:02;;;;;;;0.90;0.85;;;;;;;15.59;48.38;101035.72;5033753;28;20041;-57
2023/11/08 05:41:27;;;;;;;4.53;0.95;;;;;;;15.62;47.65;101029.13;5033406;28;20116;-56
2023/11/08 05:43:57;;;;;;;5.90;1.20;;;;;;;15.62;47.44;101024.59;5034591;28;20068;-56
2023/11/08 05:46:26;;;;;;;2.13;0.75;;;;;;;15.63;48.07;101031.66;5034675;28;20033;-57
2023/11/08 05:48:52;;;;;;;5.40;1.25;;;;;;;15.64;48.45;101025.28;5034582;28;20458;-57
2023/11/08 05:51:19;;;;;;;4.63;0.98;;;;;;;15.63;48.29;101028.97;5032933;28;20033;-57
2023/11/08 05:53:44;;;;;;;8.40;1.25;;;;;;;15.65;49.10;101029.69;5034307;28;20042;-57
2023/11/08 05:56:10;;;;;;;4.50;1.52;;;;;;;15.64;48.78;101036.06;5032502;28;20401;-57
2023/11/08 05:58:36;;;;;;;4.93;1.27;;;;;;;15.62;48.09;101030.00;5034532;28;20037;-57
2023/11/08 06:01:03;;;;;;;3.20;1.17;;;;;;;15.65;47.73;101035.09;5034283;28;20026;-57
2023/11/08 06:03:28;;;;;;;7.30;1.70;;;;;;;15.65;48.91;101035.09;5034244;28;20065;-57
2023/11/08 06:05:54;;;;;;;7.15;1.58;;;;;;;15.64;48.31;101035.22;5033927;28;20406;-57
2023/11/08 06:08:20;;;;;;;8.45;1.50;;;;;;;15.69;48.32;101047.25;5033971;28;20034;-57
2023/11/08 06:10:45;;;;;;;4.75;1.42;;;;;;;15.67;48.90;101049.28;5016273;28;20103;-57
2023/11/08 06:13:11;;;;;;;9.30;1.75;;;;;;;15.71;48.45;101045.25;5032679;28;20060;-57
2023/11/08 06:15:36;;;;;;;2.88;1.15;;;;;;;15.72;49.11;101056.88;5016073;28;20037;-57
2023/11/08 06:18:01;;;;;;;3.80;1.58;;;;;;;15.78;48.94;101066.22;5032523;28;20065;-57
2023/11/08 06:20:27;;;;;;;3.72;1.23;;;;;;;15.81;49.48;101066.75;5033723;28;20033;-57
2023/11/08 06:22:52;;;;;;;5.75;1.80;;;;;;;15.82;48.86;101063.06;5032498;28;20029;-57
2023/11/08 06:25:17;;;;;;;8.45;1.23;;;;;;;15.83;49.00;101063.91;5032376;28;20112;-57
2023/11/08 06:27:43;;;;;;;12.18;2.33;;;;;;;15.86;49.40;101068.97;5032594;28;20121;-57
2023/11/08 06:30:09;;;;;;;7.85;1.25;;;;;;;15.87;49.06;101067.97;5033673;28;20440;-57
2023/11/08 06:32:35;;;;;;;9.85;1.58;;;;;;;15.87;49.04;101076.09;5031949;28;20037;-57
2023/11/08 06:35:02;;;;;;;6.00;1.33;;;;;;;15.87;48.29;101076.09;5032269;28;20030;-57
2023/11/08 06:37:28;;;;;;;4.65;1.63;;;;;;;15.86;48.45;101069.84;5033414;28;20124;-57
2023/11/08 06:39:53;;;;;;;4.43;1.20;;;;;;;15.92;49.63;101079.16;5033313;28;20149;-57
2023/11/08 06:42:18;;;;;;;1.83;1.20;;;;;;;15.94;48.55;101085.28;5033419;28;20045;-57
2023/11/08 06:44:44;;;;;;;2.47;1.30;;;;;;;15.98;48.39;101083.94;5032008;28;20025;-57
2023/11/08 06:47:10;;;;;;;5.35;1.42;;;;;;;15.98;48.35;101078.53;5032184;28;20038;-56
2023/11/08 06:49:37;;;;;;;8.52;1.20;;;;;;;15.98;49.00;101078.53;5031974;28;20037;-57
2023/11/08 06:52:03;;;;;;;3.67;1.63;;;;;;;15.99;48.85;101085.66;5032286;28;20374;-57
2023/11/08 06:54:29;;;;;;;7.00;1.50;;;;;;;15.98;48.83;101067.72;5031958;28;20091;-56
2023/11/08 06:56:54;;;;;;;5.65;1.20;;;;;;;15.97;48.61;101083.09;5033281;28;20037;-56
2023/11/08 06:59:20;;;;;;;6.20;1.38;;;;;;;16.01;48.67;101083.63;5033243;28;20060;-56
2023/11/08 07:01:45;;;;;;;5.38;1.70;;;;;;;16.05;48.43;101079.63;5031977;28;20033;-57
2023/11/08 07:04:11;;;;;;;6.88;1.63;;;;;;;16.05;48.57;101079.63;5031755;28;20505;-57
2023/11/08 07:06:36;;;;;;;7.05;1.80;;;;;;;16.08;48.76;101079.31;5015321;28;20101;-57
2023/11/08 07:09:02;;;;;;;9.48;1.25;;;;;;;16.07;49.00;101075.75;5032314;28;20064;-56
2023/11/08 07:11:28;;;;;;;7.13;1.60;;;;;;;16.11;48.59;101084.38;5032059;28;20053;-56
2023/11/08 07:13:53;;;;;;;4.82;1.40;;;;;;;16.17;49.59;101078.31;5033500;28;20038;-57
2023/11/08 07:16:20;;;;;;;7.40;1.40;;;;;;;16.15;48.53;101072.25;5034840;28;20484;-59
2023/11/08 07:18:45;;;;;;;6.40;1.38;;;;;;;16.21;49.29;101082.41;5035312;28;20140;-59
2023/11/08 07:21:20;;;;;;;7.18;1.73;;;;;;;16.26;48.86;101082.78;5034944;28;20034;-57
2023/11/08 07:23:46;;;;;;;3.97;1.27;;;;;;;16.23;48.74;101070.44;5032740;28;20042;-56
2023/11/08 07:26:14;;;;;;;4.75;1.45;;;;;;;16.34;48.45;101080.13;5032736;28;20037;-56
2023/11/08 07:28:40;;;;;;;5.05;2.33;;;;;;;16.38;48.08;101081.53;5032783;28;20493;-57
2023/11/08 07:31:08;;;;;;;4.95;1.02;;;;;;;16.46;49.13;101086.13;5031720;28;20037;-57
2023/11/08 07:33:34;;;;;;;4.97;1.20;;;;;;;16.56;48.68;101084.16;5031677;28;20042;-57
2023/11/08 07:36:00;;;;;;;5.75;1.02;;;;;;;16.63;48.57;101069.00;5032494;28;20124;-57
2023/11/08 07:38:25;;;;;;;6.72;1.30;;;;;;;16.66;48.64;101064.13;5031556;28;20025;-57
2023/11/08 07:40:51;;;;;;;4.40;1.08;;;;;;;16.74;48.42;101060.59;5032683;28;20022;-57
2023/11/08 07:43:16;;;;;;;7.32;2.53;;;;;;;16.80;48.16;101071.63;5031391;28;20169;-57
2023/11/08 07:45:42;;;;;;;5.63;1.08;;;;;;;16.85;48.63;101073.81;5031703;28;20021;-57
2023/11/08 07:48:07;;;;;;;3.38;1.00;;;;;;;16.90;48.59;101074.16;5032041;28;20108;-57
2023/11/08 07:50:34;;;;;;;5.45;1.30;;;;;;;16.97;48.46;101085.19;5033102;28;20083;-57
2023/11/08 07:52:59;;;;;;;6.05;1.08;;;;;;;16.99;48.54;101072.34;5031605;28;20026;-57
2023/11/08 07:55:25;;;;;;;2.70;0.82;;;;;;;17.14;47.50;101086.94;5031578;28;20029;-56
2023/11/08 07:57:50;;;;;;;3.17;1.65;;;;;;;17.17;48.05;101068.47;5031493;28;20028;-57
2023/11/08 08:00:22;;;;;;;7.38;0.98;;;;;;;17.22;47.83;101068.00;5031287;28;20083;-57
2023/11/08 08:02:48;;;;;;;4.28;0.73;;;;;;;17.26;48.23;101074.75;5032877;28;20032;-56
2023/11/08 08:05:13;;;;;;;2.30;0.90;;;;;;;17.21;48.26;101079.84;5031334;28;20056;-57
2023/11/08 08:07:39;;;;;;;1.67;0.70;;;;;;;17.16;47.16;101088.47;5031213;28;20033;-56
2023/11/08 08:10:06;;;;;;;7.22;0.98;;;;;;;17.14;47.13;101081.53;5031249;28;20497;-56
2023/11/08 08:12:33;;;;;;;6.30;1.30;;;;;;;17.11;47.78;101079.16;5031164;28;20036;-56
2023/11/08 08:14:58;;;;;;;7.97;1.38;;;;;;;17.11;47.61;101090.84;5031153;28;20022;-56
2023/11/08 08:17:24;;;;;;;5.78;1.45;;;;;;;17.17;46.93;101089.31;5032373;28;20121;-57
2023/11/08 08:19:51;;;;;;;4.20;1.45;;;;;;;17.24;47.36;101090.34;5034350;28;20154;-56
2023/11/08 08:22:17;;;;;;;6.15;1.15;;;;;;;17.41;46.72;101092.06;5036326;28;20041;-57
2023/11/08 08:24:43;;;;;;;3.78;0.95;;;;;;;17.68;47.30;101083.66;5035872;28;20034;-57
2023/11/08 08:27:09;;;;;;;2.90;1.10;;;;;;;17.90;46.61;101096.53;5035891;28;20480;-57
2023/11/08 08:29:34;;;;;;;5.97;1.08;;;;;;;18.11;46.55;101090.59;5034588;28;20068;-56
2023/11/08 08:31:59;;;;;;;2.15;0.88;;;;;;;18.32;45.99;101092.75;5034279;28;20116;-57
2023/11/08 08:34:25;;;;;;;5.18;1.33;;;;;;;18.46;46.18;101102.88;5035777;28;20025;-57
2023/11/08 08:36:50;;;;;;;10.43;0.90;;;;;;;18.38;46.19;101098.34;5034520;28;20041;-57
2023/11/08 08:39:15;;;;;;;1.00;0.65;;;;;;;18.34;46.44;101107.81;5035519;28;20033;-56
2023/11/08 08:41:47;;;;;;;5.28;1.00;;;;;;;18.30;46.37;101095.66;5034343;28;20033;-57
2023/11/08 08:44:13;;;;;;;4.20;1.52;;;;;;;18.43;45.91;101101.38;5034250;28;20029;-57
2023/11/08 08:46:38;;;;;;;6.18;0.90;;;;;;;18.45;46.44;101093.91;5035691;28;20040;-57
2023/11/08 08:49:03;;;;;;;6.07;1.15;;;;;;;18.72;45.21;101089.97;5034191;28;20045;-57
2023/11/08 08:51:29;;;;;;;6.15;1.08;;;;;;;18.93;45.19;101092.91;5034131;28;20052;-56
2023/11/08 08:53:55;;;;;;;3.13;0.98;;;;;;;19.11;44.81;101093.50;5034460;28;20034;-56
2023/11/08 08:56:20;;;;;;;4.65;1.20;;;;;;;19.27;45.26;101091.72;5035612;28;20393;-56
2023/11/08 08:58:47;;;;;;;6.78;1.20;;;;;;;19.38;45.25;101097.63;5035615;28;20026;-56
2023/11/08 09:01:12;;;;;;;4.90;0.90;;;;;;;19.51;44.86;101099.75;5035427;28;20040;-57
2023/11/08 09:03:37;;;;;;;7.63;0.90;;;;;;;19.73;44.68;101107.06;5033960;28;20045;-57
2023/11/08 09:06:04;;;;;;;5.07;1.45;;;;;;;19.82;44.80;101111.38;5034018;28;20045;-57
2023/11/08 09:08:30;;;;;;;5.93;1.08;;;;;;;19.91;44.33;101109.44;5035442;28;20029;-57
2023/11/08 09:10:55;;;;;;;3.58;0.80;;;;;;;19.86;44.59;101104.56;5033982;28;20064;-57
2023/11/08 09:13:20;;;;;;;4.68;1.63;;;;;;;19.84;44.22;101103.91;5035387;28;20108;-57
2023/11/08 09:15:46;;;;;;;5.20;1.23;;;;;;;20.09;43.89;101105.41;5033830;28;20125;-57
2023/11/08 09:18:11;;;;;;;5.30;1.02;;;;;;;20.26;43.30;101093.38;5017044;28;20041;-57
2023/11/08 09:20:36;;;;;;;7.38;2.22;;;;;;;20.06;44.04;101094.88;5033801;28;20040;-62
2023/11/08 09:23:02;;;;;;;5.57;0.98;;;;;;;19.98;44.13;101105.00;5034741;28;20036;-62
2023/11/08 09:25:28;;;;;;;2.88;1.05;;;;;;;19.99;44.22;101091.19;5017338;28;20033;-61
2023/11/08 09:27:53;;;;;;;5.95;1.13;;;;;;;20.52;43.07;101086.63;5034902;28;20121;-62
2023/11/08 09:30:19;;;;;;;3.38;1.05;;;;;;;20.87;42.34;101085.84;5033047;28;20045;-61
2023/11/08 09:32:45;;;;;;;4.50;1.45;;;;;;;20.63;43.22;101078.81;5033248;28;20033;-61
2023/11/08 09:35:10;;;;;;;7.53;0.98;;;;;;;20.43;43.01;101090.47;5033594;28;20041;-62
2023/11/08 09:37:36;;;;;;;2.15;0.90;;;;;;;20.29;43.51;101087.56;5017188;28;20033;-63
2023/11/08 09:40:04;;;;;;;5.22;0.90;;;;;;;20.16;43.13;101081.00;5033575;28;20068;-61
2023/11/08 09:42:32;;;;;;;3.72;0.88;;;;;;;20.10;43.34;101079.88;5034679;28;20034;-62
2023/11/08 09:45:00;;;;;;;2.40;1.00;;;;;;;20.44;42.99;101089.41;5033206;28;20128;-62
2023/11/08 09:47:26;;;;;;;5.80;1.00;;;;;;;20.45;43.26;101091.97;5033093;28;20057;-62
2023/11/08 09:49:51;;;;;;;7.03;1.00;;;;;;;20.40;43.12;101090.84;5033063;28;20124;-62
2023/11/08 09:52:17;;;;;;;6.97;1.27;;;;;;;20.26;43.43;101084.34;5032966;28;20107;-61
2023/11/08 09:54:44;;;;;;;4.35;1.23;;;;;;;20.14;42.87;101094.81;5033042;28;20025;-62
2023/11/08 09:57:16;;;;;;;3.00;0.77;;;;;;;20.06;43.05;101096.75;5032889;28;20079;-62
2023/11/08 09:59:41;;;;;;;7.35;1.05;;;;;;;19.92;43.28;101095.69;5016801;28;20117;-62
2023/11/08 10:02:09;;;;;;;5.00;1.10;;;;;;;20.02;43.22;101101.72;5032887;28;20041;-62
2023/11/08 10:04:34;;;;;;;8.70;1.17;;;;;;;20.31;42.51;101092.81;5033981;28;20041;-61
2023/11/08 10:07:00;;;;;;;3.63;0.90;;;;;;;20.17;42.90;101089.00;5032961;28;20030;-61
2023/11/08 10:09:32;;;;;;;3.63;1.15;;;;;;;20.07;42.99;101082.13;5034025;28;20034;-61
2023/11/08 10:11:58;;;;;;;5.32;0.95;;;;;;;20.14;42.16;101077.63;5016957;28;20520;-62
2023/11/08 10:14:32;;;;;;;3.75;1.05;;;;;;;20.12;42.94;101080.56;5034276;28;20469;-61
2023/11/08 10:16:57;;;;;;;3.42;0.98;;;;;;;20.22;42.26;101075.69;5016125;28;20029;-61
2023/11/08 10:19:38;;;;;;;1.17;0.73;;;;;;;20.32;42.78;101068.09;5034035;28;20029;-62
2023/11/08 10:22:04;;;;;;;3.25;0.85;;;;;;;20.35;41.71;101074.22;5033910;28;20442;-61
2023/11/08 10:24:29;;;;;;;2.70;0.57;;;;;;;20.73;42.08;101067.66;5032503;28;20120;-62
2023/11/08 10:27:09;;;;;;;1.27;0.60;;;;;;;20.98;41.38;101051.84;5033781;28;20501;-61
2023/11/08 10:29:35;;;;;;;6.70;1.02;;;;;;;20.95;41.28;101060.38;5032702;28;20052;-57
2023/11/08 10:32:17;;;;;;;6.82;0.90;;;;;;;20.91;41.40;101054.47;5032343;28;20501;-57
2023/11/08 10:34:42;;;;;;;2.13;0.90;;;;;;;20.86;41.74;101051.47;5033529;28;20072;-57
2023/11/08 10:37:27;;;;;;;2.75;0.90;;;;;;;21.17;41.55;101043.94;5033792;28;20034;-57
2023/11/08 10:39:56;;;;;;;5.82;0.85;;;;;;;21.45;41.28;101035.84;5016297;28;20128;-57
2023/11/08 10:42:21;;;;;;;2.60;0.90;;;;;;;21.78;40.88;101047.88;5032050;28;20116;-57
2023/11/08 10:44:47;;;;;;;1.90;0.95;;;;;;;22.24;39.70;101020.16;5033200;28;20112;-57
2023/11/08 10:47:13;;;;;;;4.78;0.70;;;;;;;22.25;39.75;101017.19;5033577;28;20025;-58
2023/11/08 10:49:40;;;;;;;4.22;0.95;;;;;;;22.06;40.77;101017.91;5031870;28;20120;-57
2023/11/08 10:52:09;;;;;;;1.60;0.80;;;;;;;22.24;39.76;101010.06;5032210;28;20087;-57
2023/11/08 10:54:36;;;;;;;7.10;0.80;;;;;;;22.29;39.37;101001.28;5031931;28;20057;-57
2023/11/08 10:57:04;;;;;;;3.13;0.50;;;;;;;22.27;40.28;100993.31;5031922;28;20615;-57
2023/11/08 10:59:38;;;;;;;4.05;0.88;;;;;;;22.36;39.68;101002.16;5030826;28;20075;-57
2023/11/08 11:02:29;;;;;;;5.78;0.88;;;;;;;22.74;39.09;101000.69;5032025;28;20026;-57
2023/11/08 11:04:58;;;;;;;6.03;0.82;;;;;;;23.24;38.67;100990.31;5028871;28;20046;-57
2023/11/08 11:07:27;;;;;;;1.77;0.50;;;;;;;23.56;38.78;100993.13;5031794;28;20056;-57
2023/11/08 11:09:56;;;;;;;1.85;0.70;;;;;;;23.47;38.91;100997.13;5031856;28;20048;-57
2023/11/08 11:12:56;;;;;;;4.22;1.00;;;;;;;23.17;38.76;100987.59;5033071;28;20037;-57
2023/11/08 11:15:27;;;;;;;4.40;0.63;;;;;;;22.99;39.29;100982.72;5015615;28;20033;-57
2023/11/08 11:17:57;;;;;;;2.63;0.40;;;;;;;22.91;39.15;100973.84;5014938;28;20030;-58
2023/11/08 11:20:29;;;;;;;3.72;0.73;;;;;;;22.80;38.40;100977.19;5007659;28;20436;-58